Latest Coastal Weather Observations for Adele Island

IDW60701

Issued at 9:45 am WST Wednesday 26 November 2014 (issued every 10 minutes, with the page automatically refreshed every 10 minutes)

About coastal observations | Map of coastal stations | Coastal observations for WA | Marine services | Other Formats
Station Details ID: 200735 Name: ADELE ISLAND Lat: -15.51 Lon: 123.16 Height: 4.6 m
Data from the previous 72 hours. | See also: Recent months for locations in Western Australia
Date/Time
WST
Temp

°C
Wind Pressure Rain
since 9am
mm
Weather Cloud Vis
km
Sea
Height
m
Swell
Dir
 
Speed
knots
Gust
knots
hPa Trend Height
m
Period
s
Dir
26/09:30am 30.8 S 13 18 1007.8 - - - - - - - - -
26/09:00am 30.3 S 15 19 1007.9 - - - - - - - - -
26/08:30am 30.2 SSW 14 16 1007.9 - - - - - - - - -
26/08:00am 30.4 SSW 12 15 1007.5 - - - - - - - - -
26/07:30am 29.9 SSW 12 16 1007.5 - - - - - - - - -
26/07:00am 29.6 SSW 11 14 1007.3 - - - - - - - - -
26/06:30am 29.2 SW 10 12 1007.1 - - - - - - - - -
26/06:00am 28.8 SW 9 12 1007.3 - - - - - - - - -
26/05:30am 28.5 SSW 10 12 1007.1 - - - - - - - - -
26/05:00am 28.5 SSW 10 13 1006.9 - - - - - - - - -
26/04:30am 28.5 SSW 9 11 1006.8 - - - - - - - - -
26/04:00am 28.3 S 7 8 1006.9 - - - - - - - - -
26/03:30am 28.6 SSW 9 10 1006.5 - - - - - - - - -
26/03:00am 28.6 S 8 9 1006.6 - - - - - - - - -
26/02:30am 28.5 SSE 6 9 1006.6 - - - - - - - - -
26/02:00am 29.0 SW 9 12 1006.3 - - - - - - - - -
26/01:30am 29.2 SW 12 16 1006.2 - - - - - - - - -
26/01:00am 28.8 SW 12 16 1005.9 - - - - - - - - -
26/12:30am 28.9 W 13 15 1005.7 - - - - - - - - -
26/12:00am 28.9 W 11 14 1006.4 - - - - - - - - -
 
Date/Time
WST
Temp

°C
Wind Pressure Rain
since 9am
mm
Weather Cloud Vis
km
Sea
Height
m
Swell
Dir
 
Speed
knots
Gust
knots
hPa Trend Height
m
Period
s
Dir
25/11:30pm 28.9 W 12 15 1006.6 - - - - - - - - -
25/11:00pm 28.9 W 11 15 1006.9 - - - - - - - - -
25/10:30pm 29.0 W 11 14 1006.9 - - - - - - - - -
25/10:00pm 29.0 WNW 10 14 1007.1 - - - - - - - - -
25/09:30pm 29.0 W 10 12 1007.2 - - - - - - - - -
25/09:00pm 28.9 WNW 9 11 1007.1 - - - - - - - - -
25/08:30pm 29.0 WNW 11 14 1006.8 - - - - - - - - -
25/08:00pm 29.1 WNW 11 14 1006.7 - - - - - - - - -
25/07:30pm 29.2 WNW 9 11 1006.5 - - - - - - - - -
25/07:00pm 29.4 WNW 10 12 1006.3 - - - - - - - - -
25/06:30pm 29.5 WNW 9 11 1006.2 - - - - - - - - -
25/06:00pm 29.6 WNW 8 10 1005.9 - - - - - - - - -
25/05:30pm 29.9 W 10 11 1005.6 - - - - - - - - -
25/05:00pm 30.0 W 9 11 1005.4 - - - - - - - - -
25/04:30pm 30.6 W 8 11 1005.5 - - - - - - - - -
25/04:00pm 30.7 W 9 11 1005.7 - - - - - - - - -
25/03:30pm 30.2 W 9 11 1005.9 - - - - - - - - -
25/03:00pm 30.4 W 9 11 1006.1 - - - - - - - - -
25/02:30pm 30.5 W 9 11 1006.4 - - - - - - - - -
25/02:00pm 30.2 W 9 11 1006.9 - - - - - - - - -
25/01:30pm 30.7 WSW 9 11 1007.4 - - - - - - - - -
25/01:00pm 30.2 WSW 9 11 1007.9 - - - - - - - - -
25/12:30pm 30.8 WSW 8 9 1008.4 - - - - - - - - -
25/12:00pm 30.5 W 8 10 1008.7 - - - - - - - - -
25/11:30am 30.7 WSW 8 10 1009.0 - - - - - - - - -
25/11:00am 30.1 WSW 9 11 1009.4 - - - - - - - - -
25/10:30am 30.5 W 8 10 1009.6 - - - - - - - - -
25/10:00am 30.2 NNW 4 6 1009.8 - - - - - - - - -
25/09:30am 31.7 E 4 7 1010.0 - - - - - - - - -
25/09:00am 31.9 NE 1 4 1010.1 - - - - - - - - -
25/08:30am 30.6 ENE 5 7 1010.3 - - - - - - - - -
25/08:00am 30.0 E 5 8 1010.3 - - - - - - - - -
25/07:30am 29.7 E 6 8 1010.3 - - - - - - - - -
25/07:00am 29.8 SE 7 8 1010.1 - - - - - - - - -
25/06:30am 28.7 E 8 9 1010.2 - - - - - - - - -
25/06:00am 28.2 NNE 4 5 1009.3 - - - - - - - - -
25/05:30am 28.6 N 2 4 1008.7 - - - - - - - - -
25/05:00am 28.6 WNW 6 6 1008.1 - - - - - - - - -
25/04:30am 28.6 WNW 6 6 1007.8 - - - - - - - - -
25/04:00am 28.7 WNW 6 7 1007.5 - - - - - - - - -
25/03:30am 28.7 WSW 7 8 1007.3 - - - - - - - - -
25/03:00am 28.8 W 7 8 1007.2 - - - - - - - - -
25/02:30am 28.9 WNW 8 11 1007.0 - - - - - - - - -
25/02:00am 28.8 W 9 11 1006.9 - - - - - - - - -
25/01:30am 28.9 W 9 13 1007.2 - - - - - - - - -
25/01:00am 29.0 W 11 13 1007.1 - - - - - - - - -
25/12:30am 29.0 W 11 13 1007.7 - - - - - - - - -
25/12:00am 29.0 W 12 15 1008.0 - - - - - - - - -
 
Date/Time
WST
Temp

°C
Wind Pressure Rain
since 9am
mm
Weather Cloud Vis
km
Sea
Height
m
Swell
Dir
 
Speed
knots
Gust
knots
hPa Trend Height
m
Period
s
Dir
24/11:30pm 28.9 W 12 14 1008.5 - - - - - - - - -
24/11:00pm 28.8 W 11 13 1008.8 - - - - - - - - -
24/10:30pm 28.9 W 10 12 1009.0 - - - - - - - - -
24/10:00pm 28.7 W 9 12 1009.3 - - - - - - - - -
24/09:30pm 28.6 W 10 12 1009.5 - - - - - - - - -
24/09:00pm 28.6 W 9 11 1009.3 - - - - - - - - -
24/08:30pm 28.6 W 9 10 1009.3 - - - - - - - - -
24/08:00pm 28.6 W 9 11 1009.1 - - - - - - - - -
24/07:30pm 28.8 W 9 11 1008.8 - - - - - - - - -
24/07:00pm 28.8 W 8 10 1008.7 - - - - - - - - -
24/06:30pm 29.0 WSW 9 10 1008.3 - - - - - - - - -
24/06:00pm 29.0 WSW 10 12 1007.9 - - - - - - - - -
24/05:30pm 29.4 W 10 12 1007.5 - - - - - - - - -
24/05:00pm 29.7 W 9 11 1007.1 - - - - - - - - -
24/04:30pm 29.9 WSW 9 11 1007.1 - - - - - - - - -
24/04:00pm 30.1 WSW 10 12 1007.1 - - - - - - - - -
24/03:30pm 30.5 SW 10 11 1007.4 - - - - - - - - -
24/03:00pm 31.0 SW 11 13 1007.6 - - - - - - - - -
24/02:30pm 31.1 WSW 10 13 1007.9 - - - - - - - - -
24/02:00pm 31.1 WSW 8 10 1008.3 - - - - - - - - -
24/01:30pm 31.3 W 7 9 1008.5 - - - - - - - - -
24/01:00pm 31.6 WNW 6 8 1008.8 - - - - - - - - -
24/12:30pm 31.9 NNW 7 8 1009.1 - - - - - - - - -
24/12:00pm 31.6 NNW 6 7 1009.6 - - - - - - - - -
24/11:30am 31.4 NNW 6 7 1009.8 - - - - - - - - -
24/11:00am 31.2 N 5 7 1010.2 - - - - - - - - -
24/10:30am 30.4 N 6 8 1010.4 - - - - - - - - -
24/10:00am 29.8 N 7 8 1010.9 - - - - - - - - -
24/09:30am 30.5 NNW 5 7 1011.1 - - - - - - - - -
24/09:00am 30.1 NNE 5 6 1011.3 - - - - - - - - -
24/08:30am 29.8 NNE 4 6 1011.4 - - - - - - - - -
24/08:00am 29.5 N 5 6 1011.5 - - - - - - - - -
24/07:30am 29.4 N 3 5 1011.4 - - - - - - - - -
24/07:00am 29.0 N 3 4 1011.4 - - - - - - - - -
24/06:30am 28.7 CALM 0 3 1011.4 - - - - - - - - -
24/06:00am 28.7 CALM 0 0 1011.1 - - - - - - - - -
24/05:30am 27.7 CALM 0 2 1010.7 - - - - - - - - -
24/05:00am 27.8 CALM 0 2 1010.4 - - - - - - - - -
24/04:30am 27.7 NNE 3 3 1010.3 - - - - - - - - -
24/04:00am 27.8 NNE 3 3 1010.1 - - - - - - - - -
24/03:30am 27.9 NE 5 5 1009.8 - - - - - - - - -
24/03:00am 27.9 SSW 5 7 1009.5 - - - - - - - - -
24/02:30am 28.1 NNW 5 6 1009.5 - - - - - - - - -
24/02:00am 27.9 NNW 5 5 1009.3 - - - - - - - - -
24/01:30am 28.3 NNW 5 5 1009.4 - - - - - - - - -
24/01:00am 28.0 NNE 2 4 1009.7 - - - - - - - - -
24/12:30am 28.2 NE 4 5 1010.0 - - - - - - - - -
24/12:00am 28.0 ENE 4 5 1010.3 - - - - - - - - -
 
Date/Time
WST
Temp

°C
Wind Pressure Rain
since 9am
mm
Weather Cloud Vis
km
Sea
Height
m
Swell
Dir
 
Speed
knots
Gust
knots
hPa Trend Height
m
Period
s
Dir
23/11:30pm 28.5 NW 5 7 1010.8 - - - - - - - - -
23/11:00pm 28.8 W 6 7 1011.0 - - - - - - - - -
23/10:30pm 28.8 WNW 8 10 1011.0 - - - - - - - - -
23/10:00pm 28.7 W 7 9 1011.0 - - - - - - - - -
23/09:30pm 28.8 W 8 9 1010.8 - - - - - - - - -
23/09:00pm 28.8 WNW 7 9 1010.5 - - - - - - - - -
23/08:30pm 28.8 W 9 11 1010.2 - - - - - - - - -
23/08:00pm 28.7 W 9 11 1009.9 - - - - - - - - -
23/07:30pm 28.7 W 8 10 1009.4 - - - - - - - - -
23/07:00pm 28.7 W 9 11 1009.0 - - - - - - - - -
23/06:30pm 28.8 W 9 11 1008.6 - - - - - - - - -
23/06:00pm 29.0 W 9 11 1008.2 - - - - - - - - -
23/05:30pm 29.3 W 9 11 1007.9 - - - - - - - - -
23/05:00pm 29.8 W 9 11 1007.7 - - - - - - - - -
23/04:30pm 30.0 WNW 7 9 1007.6 - - - - - - - - -
23/04:00pm 30.3 WNW 7 9 1007.5 - - - - - - - - -
23/03:30pm 30.3 WNW 6 8 1007.7 - - - - - - - - -
23/03:00pm 30.2 W 7 10 1007.7 - - - - - - - - -
23/02:30pm 30.3 W 8 11 1008.1 - - - - - - - - -
23/02:00pm 30.0 WSW 9 11 1008.4 - - - - - - - - -
23/01:30pm 30.7 WSW 9 11 1008.7 - - - - - - - - -
23/01:00pm 29.6 WSW 8 9 1009.1 - - - - - - - - -
23/12:30pm 30.1 WSW 7 10 1009.4 - - - - - - - - -
23/12:00pm 30.1 WSW 8 10 1009.6 - - - - - - - - -
23/11:30am 30.0 WSW 8 11 1010.0 - - - - - - - - -
23/11:00am 30.1 SSW 8 11 1010.4 - - - - - - - - -
23/10:30am 29.6 SW 8 11 1010.8 - - - - - - - - -
23/10:00am 29.3 SW 8 10 1011.1 - - - - - - - - -

Other Formats:

Comma delimited format used in spreadsheet applications
http://www.bom.gov.au/fwo/IDW60701/IDW60701.94210.axf

JavaScript Object Notation format (JSON) in row-major order
http://www.bom.gov.au/fwo/IDW60701/IDW60701.94210.json